sensor_id;sensor_type;location;lat;lon;timestamp;temperature;humidity
46720;DHT22;32452;51.382;-0.002;2022-09-27T00:00:50;12.10;88.60
46720;DHT22;32452;51.382;-0.002;2022-09-27T00:03:37;12.10;88.70
46720;DHT22;32452;51.382;-0.002;2022-09-27T00:06:25;12.10;88.80
46720;DHT22;32452;51.382;-0.002;2022-09-27T00:09:11;12.10;88.90
46720;DHT22;32452;51.382;-0.002;2022-09-27T00:11:56;12.10;88.90
46720;DHT22;32452;51.382;-0.002;2022-09-27T00:14:42;12.10;89.00
46720;DHT22;32452;51.382;-0.002;2022-09-27T00:17:28;12.10;88.90
46720;DHT22;32452;51.382;-0.002;2022-09-27T00:20:13;12.10;89.10
46720;DHT22;32452;51.382;-0.002;2022-09-27T00:22:59;12.10;89.10
46720;DHT22;32452;51.382;-0.002;2022-09-27T00:25:57;12.10;88.90
46720;DHT22;32452;51.382;-0.002;2022-09-27T00:28:43;12.10;88.90
46720;DHT22;32452;51.382;-0.002;2022-09-27T00:31:29;12.00;88.80
46720;DHT22;32452;51.382;-0.002;2022-09-27T00:34:19;12.00;88.80
46720;DHT22;32452;51.382;-0.002;2022-09-27T00:37:06;12.00;88.90
46720;DHT22;32452;51.382;-0.002;2022-09-27T00:39:51;12.00;88.90
46720;DHT22;32452;51.382;-0.002;2022-09-27T00:42:36;12.00;89.00
46720;DHT22;32452;51.382;-0.002;2022-09-27T00:45:22;12.00;89.10
46720;DHT22;32452;51.382;-0.002;2022-09-27T00:48:12;11.90;89.10
46720;DHT22;32452;51.382;-0.002;2022-09-27T00:51:02;12.00;89.20
46720;DHT22;32452;51.382;-0.002;2022-09-27T00:53:50;11.90;89.10
46720;DHT22;32452;51.382;-0.002;2022-09-27T00:56:39;12.00;89.20
46720;DHT22;32452;51.382;-0.002;2022-09-27T00:59:38;12.00;89.20
46720;DHT22;32452;51.382;-0.002;2022-09-27T01:02:24;11.90;89.20
46720;DHT22;32452;51.382;-0.002;2022-09-27T01:05:11;11.90;89.20
46720;DHT22;32452;51.382;-0.002;2022-09-27T01:07:58;11.90;89.20
46720;DHT22;32452;51.382;-0.002;2022-09-27T01:40:58;11.70;90.00
46720;DHT22;32452;51.382;-0.002;2022-09-27T01:46:46;11.70;90.00
46720;DHT22;32452;51.382;-0.002;2022-09-27T01:50:18;11.60;90.00
46720;DHT22;32452;51.382;-0.002;2022-09-27T01:53:02;11.60;90.10
46720;DHT22;32452;51.382;-0.002;2022-09-27T01:55:50;11.60;90.20
46720;DHT22;32452;51.382;-0.002;2022-09-27T02:02:07;11.60;90.20
46720;DHT22;32452;51.382;-0.002;2022-09-27T02:04:57;11.60;90.20
46720;DHT22;32452;51.382;-0.002;2022-09-27T02:07:58;11.50;90.30
46720;DHT22;32452;51.382;-0.002;2022-09-27T02:10:47;11.50;90.40
46720;DHT22;32452;51.382;-0.002;2022-09-27T02:14:06;11.40;90.40
46720;DHT22;32452;51.382;-0.002;2022-09-27T02:17:02;11.30;90.30
46720;DHT22;32452;51.382;-0.002;2022-09-27T02:26:26;11.10;90.50
46720;DHT22;32452;51.382;-0.002;2022-09-27T02:29:23;11.10;90.60
46720;DHT22;32452;51.382;-0.002;2022-09-27T02:32:11;11.00;90.50
46720;DHT22;32452;51.382;-0.002;2022-09-27T02:35:01;11.00;90.60
46720;DHT22;32452;51.382;-0.002;2022-09-27T02:37:47;11.00;90.70
46720;DHT22;32452;51.382;-0.002;2022-09-27T02:40:34;10.90;90.70
46720;DHT22;32452;51.382;-0.002;2022-09-27T02:43:23;10.90;90.80
46720;DHT22;32452;51.382;-0.002;2022-09-27T03:02:20;10.70;90.70
46720;DHT22;32452;51.382;-0.002;2022-09-27T03:05:12;10.60;90.80
46720;DHT22;32452;51.382;-0.002;2022-09-27T03:08:00;10.50;90.80
46720;DHT22;32452;51.382;-0.002;2022-09-27T03:10:45;10.50;91.00
46720;DHT22;32452;51.382;-0.002;2022-09-27T03:13:31;10.40;91.00
46720;DHT22;32452;51.382;-0.002;2022-09-27T03:16:37;10.40;91.10
46720;DHT22;32452;51.382;-0.002;2022-09-27T03:19:23;10.30;91.20
46720;DHT22;32452;51.382;-0.002;2022-09-27T03:22:08;10.30;91.30
46720;DHT22;32452;51.382;-0.002;2022-09-27T03:24:54;10.20;91.40
46720;DHT22;32452;51.382;-0.002;2022-09-27T03:27:39;10.20;91.50
46720;DHT22;32452;51.382;-0.002;2022-09-27T03:30:25;10.20;91.70
46720;DHT22;32452;51.382;-0.002;2022-09-27T03:33:11;10.20;91.80
46720;DHT22;32452;51.382;-0.002;2022-09-27T03:35:56;10.10;91.80
46720;DHT22;32452;51.382;-0.002;2022-09-27T03:38:42;10.10;91.90
46720;DHT22;32452;51.382;-0.002;2022-09-27T03:41:28;10.10;92.00
46720;DHT22;32452;51.382;-0.002;2022-09-27T03:44:14;10.10;92.00
46720;DHT22;32452;51.382;-0.002;2022-09-27T03:46:59;10.00;92.00
46720;DHT22;32452;51.382;-0.002;2022-09-27T03:49:44;10.00;92.10
46720;DHT22;32452;51.382;-0.002;2022-09-27T03:52:30;10.00;92.20
46720;DHT22;32452;51.382;-0.002;2022-09-27T03:55:15;10.00;92.20
46720;DHT22;32452;51.382;-0.002;2022-09-27T03:58:01;10.00;92.30
46720;DHT22;32452;51.382;-0.002;2022-09-27T04:00:48;10.00;92.30
46720;DHT22;32452;51.382;-0.002;2022-09-27T04:03:33;9.90;92.20
46720;DHT22;32452;51.382;-0.002;2022-09-27T04:06:20;9.90;92.30
46720;DHT22;32452;51.382;-0.002;2022-09-27T04:09:07;9.90;92.30
46720;DHT22;32452;51.382;-0.002;2022-09-27T04:11:52;9.90;92.30
46720;DHT22;32452;51.382;-0.002;2022-09-27T04:14:37;9.80;92.30
46720;DHT22;32452;51.382;-0.002;2022-09-27T04:17:23;9.80;92.40
46720;DHT22;32452;51.382;-0.002;2022-09-27T04:20:10;9.80;92.30
46720;DHT22;32452;51.382;-0.002;2022-09-27T04:22:55;9.80;92.30
46720;DHT22;32452;51.382;-0.002;2022-09-27T04:25:41;9.80;92.70
46720;DHT22;32452;51.382;-0.002;2022-09-27T04:28:27;9.80;92.40
46720;DHT22;32452;51.382;-0.002;2022-09-27T04:31:14;9.70;92.30
46720;DHT22;32452;51.382;-0.002;2022-09-27T04:34:00;9.70;92.30
46720;DHT22;32452;51.382;-0.002;2022-09-27T04:36:45;9.70;92.30
46720;DHT22;32452;51.382;-0.002;2022-09-27T04:39:31;9.70;92.30
46720;DHT22;32452;51.382;-0.002;2022-09-27T04:42:16;9.60;92.30
46720;DHT22;32452;51.382;-0.002;2022-09-27T04:45:02;9.60;92.40
46720;DHT22;32452;51.382;-0.002;2022-09-27T04:47:49;9.70;92.40
46720;DHT22;32452;51.382;-0.002;2022-09-27T04:50:34;9.70;92.50
46720;DHT22;32452;51.382;-0.002;2022-09-27T04:53:20;9.70;92.50
46720;DHT22;32452;51.382;-0.002;2022-09-27T04:56:06;9.80;92.50
46720;DHT22;32452;51.382;-0.002;2022-09-27T04:58:52;9.80;92.50
46720;DHT22;32452;51.382;-0.002;2022-09-27T05:01:38;9.90;92.60
46720;DHT22;32452;51.382;-0.002;2022-09-27T05:04:24;9.90;92.50
46720;DHT22;32452;51.382;-0.002;2022-09-27T05:07:10;9.90;92.50
46720;DHT22;32452;51.382;-0.002;2022-09-27T05:09:55;10.00;92.40
46720;DHT22;32452;51.382;-0.002;2022-09-27T05:12:41;10.00;92.70
46720;DHT22;32452;51.382;-0.002;2022-09-27T05:15:26;10.00;92.40
46720;DHT22;32452;51.382;-0.002;2022-09-27T05:18:11;10.00;92.30
46720;DHT22;32452;51.382;-0.002;2022-09-27T05:20:57;9.90;92.30
46720;DHT22;32452;51.382;-0.002;2022-09-27T05:23:43;9.90;92.30
46720;DHT22;32452;51.382;-0.002;2022-09-27T05:26:32;9.90;92.40
46720;DHT22;32452;51.382;-0.002;2022-09-27T05:29:17;9.90;92.40
46720;DHT22;32452;51.382;-0.002;2022-09-27T05:32:03;9.90;92.50
46720;DHT22;32452;51.382;-0.002;2022-09-27T05:34:49;9.90;92.50
46720;DHT22;32452;51.382;-0.002;2022-09-27T05:37:34;9.90;92.50
46720;DHT22;32452;51.382;-0.002;2022-09-27T05:40:21;10.00;92.60
46720;DHT22;32452;51.382;-0.002;2022-09-27T05:43:26;10.00;92.50
46720;DHT22;32452;51.382;-0.002;2022-09-27T05:46:12;10.00;92.50
46720;DHT22;32452;51.382;-0.002;2022-09-27T05:48:58;10.10;92.50
46720;DHT22;32452;51.382;-0.002;2022-09-27T05:51:44;10.10;92.50
46720;DHT22;32452;51.382;-0.002;2022-09-27T05:54:29;10.10;92.50
46720;DHT22;32452;51.382;-0.002;2022-09-27T05:57:15;10.10;92.50
46720;DHT22;32452;51.382;-0.002;2022-09-27T06:00:01;10.20;92.50
46720;DHT22;32452;51.382;-0.002;2022-09-27T06:03:00;10.20;92.50
46720;DHT22;32452;51.382;-0.002;2022-09-27T06:05:45;10.20;92.40
46720;DHT22;32452;51.382;-0.002;2022-09-27T06:08:37;10.30;92.40
46720;DHT22;32452;51.382;-0.002;2022-09-27T06:11:23;10.30;92.40
46720;DHT22;32452;51.382;-0.002;2022-09-27T06:14:08;10.30;92.30
46720;DHT22;32452;51.382;-0.002;2022-09-27T06:16:55;10.30;92.30
46720;DHT22;32452;51.382;-0.002;2022-09-27T06:19:40;10.40;92.20
46720;DHT22;32452;51.382;-0.002;2022-09-27T06:22:26;10.40;92.10
46720;DHT22;32452;51.382;-0.002;2022-09-27T06:25:12;10.40;92.10
46720;DHT22;32452;51.382;-0.002;2022-09-27T06:27:57;10.40;92.10
46720;DHT22;32452;51.382;-0.002;2022-09-27T06:30:48;10.50;92.00
46720;DHT22;32452;51.382;-0.002;2022-09-27T06:33:34;10.50;92.00
46720;DHT22;32452;51.382;-0.002;2022-09-27T06:36:19;10.50;92.00
46720;DHT22;32452;51.382;-0.002;2022-09-27T06:39:05;10.50;92.10
46720;DHT22;32452;51.382;-0.002;2022-09-27T06:41:55;10.50;92.20
46720;DHT22;32452;51.382;-0.002;2022-09-27T06:44:41;10.60;92.20
46720;DHT22;32452;51.382;-0.002;2022-09-27T06:47:38;10.60;92.20
46720;DHT22;32452;51.382;-0.002;2022-09-27T06:50:23;10.60;92.20
46720;DHT22;32452;51.382;-0.002;2022-09-27T06:53:11;10.60;92.20
46720;DHT22;32452;51.382;-0.002;2022-09-27T06:56:01;10.60;92.20
46720;DHT22;32452;51.382;-0.002;2022-09-27T06:58:47;10.70;92.10
46720;DHT22;32452;51.382;-0.002;2022-09-27T07:01:50;10.70;92.10
46720;DHT22;32452;51.382;-0.002;2022-09-27T07:04:37;10.70;92.00
46720;DHT22;32452;51.382;-0.002;2022-09-27T07:07:23;10.70;92.00
46720;DHT22;32452;51.382;-0.002;2022-09-27T07:10:09;10.80;91.90
46720;DHT22;32452;51.382;-0.002;2022-09-27T07:12:55;10.80;91.70
46720;DHT22;32452;51.382;-0.002;2022-09-27T07:15:42;10.80;91.70
46720;DHT22;32452;51.382;-0.002;2022-09-27T07:18:28;10.80;91.60
46720;DHT22;32452;51.382;-0.002;2022-09-27T07:21:14;10.80;91.50
46720;DHT22;32452;51.382;-0.002;2022-09-27T07:24:01;10.90;91.50
46720;DHT22;32452;51.382;-0.002;2022-09-27T07:26:47;10.90;91.40
46720;DHT22;32452;51.382;-0.002;2022-09-27T07:29:32;11.00;91.40
46720;DHT22;32452;51.382;-0.002;2022-09-27T07:32:18;11.00;91.30
46720;DHT22;32452;51.382;-0.002;2022-09-27T07:35:05;11.10;91.20
46720;DHT22;32452;51.382;-0.002;2022-09-27T07:37:51;11.10;91.10
46720;DHT22;32452;51.382;-0.002;2022-09-27T07:40:37;11.20;91.10
46720;DHT22;32452;51.382;-0.002;2022-09-27T07:43:23;11.20;91.20
46720;DHT22;32452;51.382;-0.002;2022-09-27T07:46:09;11.30;91.30
46720;DHT22;32452;51.382;-0.002;2022-09-27T07:48:55;11.30;91.40
46720;DHT22;32452;51.382;-0.002;2022-09-27T07:51:41;11.40;91.50
46720;DHT22;32452;51.382;-0.002;2022-09-27T07:54:26;11.40;91.50
46720;DHT22;32452;51.382;-0.002;2022-09-27T07:57:13;11.50;91.70
46720;DHT22;32452;51.382;-0.002;2022-09-27T07:59:59;11.50;91.70
46720;DHT22;32452;51.382;-0.002;2022-09-27T08:02:44;11.60;91.70
46720;DHT22;32452;51.382;-0.002;2022-09-27T08:05:30;11.80;91.70
46720;DHT22;32452;51.382;-0.002;2022-09-27T08:08:16;11.80;91.70
46720;DHT22;32452;51.382;-0.002;2022-09-27T08:11:10;11.90;91.70
46720;DHT22;32452;51.382;-0.002;2022-09-27T08:13:57;12.00;91.60
46720;DHT22;32452;51.382;-0.002;2022-09-27T08:16:43;12.40;91.80
46720;DHT22;32452;51.382;-0.002;2022-09-27T08:19:29;12.90;91.30
46720;DHT22;32452;51.382;-0.002;2022-09-27T08:22:15;13.00;90.70
46720;DHT22;32452;51.382;-0.002;2022-09-27T08:25:00;13.10;90.50
46720;DHT22;32452;51.382;-0.002;2022-09-27T08:27:54;13.10;90.20
46720;DHT22;32452;51.382;-0.002;2022-09-27T08:30:40;13.00;90.00
46720;DHT22;32452;51.382;-0.002;2022-09-27T08:33:26;13.00;90.00
46720;DHT22;32452;51.382;-0.002;2022-09-27T08:36:18;13.00;90.00
46720;DHT22;32452;51.382;-0.002;2022-09-27T08:39:07;13.00;90.00
46720;DHT22;32452;51.382;-0.002;2022-09-27T08:45:25;13.50;89.70
46720;DHT22;32452;51.382;-0.002;2022-09-27T08:48:15;14.20;88.30
46720;DHT22;32452;51.382;-0.002;2022-09-27T08:51:04;14.50;86.50
46720;DHT22;32452;51.382;-0.002;2022-09-27T08:53:58;14.70;85.20
46720;DHT22;32452;51.382;-0.002;2022-09-27T08:56:46;14.80;83.40
46720;DHT22;32452;51.382;-0.002;2022-09-27T08:59:38;14.80;82.70
46720;DHT22;32452;51.382;-0.002;2022-09-27T09:02:25;14.80;82.20
46720;DHT22;32452;51.382;-0.002;2022-09-27T09:11:19;16.10;78.20
46720;DHT22;32452;51.382;-0.002;2022-09-27T09:14:49;16.20;75.80
46720;DHT22;32452;51.382;-0.002;2022-09-27T09:18:10;16.10;75.40
46720;DHT22;32452;51.382;-0.002;2022-09-27T09:33:22;15.90;73.00
46720;DHT22;32452;51.382;-0.002;2022-09-27T09:36:17;15.60;73.00
46720;DHT22;32452;51.382;-0.002;2022-09-27T09:39:17;15.50;73.70
46720;DHT22;32452;51.382;-0.002;2022-09-27T09:42:27;15.50;73.70
46720;DHT22;32452;51.382;-0.002;2022-09-27T09:45:21;15.40;73.70
46720;DHT22;32452;51.382;-0.002;2022-09-27T09:49:01;15.40;74.00
46720;DHT22;32452;51.382;-0.002;2022-09-27T09:51:23;15.30;74.20
46720;DHT22;32452;51.382;-0.002;2022-09-27T09:54:31;15.10;74.30
46720;DHT22;32452;51.382;-0.002;2022-09-27T09:57:28;15.00;74.50
46720;DHT22;32452;51.382;-0.002;2022-09-27T10:00:17;14.90;75.00
46720;DHT22;32452;51.382;-0.002;2022-09-27T10:03:03;14.80;75.20
46720;DHT22;32452;51.382;-0.002;2022-09-27T10:05:49;14.70;75.30
46720;DHT22;32452;51.382;-0.002;2022-09-27T10:08:34;14.50;75.50
46720;DHT22;32452;51.382;-0.002;2022-09-27T10:11:39;14.40;75.80
46720;DHT22;32452;51.382;-0.002;2022-09-27T10:14:26;14.40;76.50
46720;DHT22;32452;51.382;-0.002;2022-09-27T10:17:15;14.40;76.80
46720;DHT22;32452;51.382;-0.002;2022-09-27T10:20:04;14.40;76.60
46720;DHT22;32452;51.382;-0.002;2022-09-27T10:22:53;14.40;76.70
46720;DHT22;32452;51.382;-0.002;2022-09-27T10:28:40;14.40;76.70
46720;DHT22;32452;51.382;-0.002;2022-09-27T10:31:34;14.30;76.80
46720;DHT22;32452;51.382;-0.002;2022-09-27T10:34:33;14.30;77.10
46720;DHT22;32452;51.382;-0.002;2022-09-27T10:37:21;14.40;77.40
46720;DHT22;32452;51.382;-0.002;2022-09-27T10:40:39;14.60;77.80
46720;DHT22;32452;51.382;-0.002;2022-09-27T10:43:30;15.20;76.70
46720;DHT22;32452;51.382;-0.002;2022-09-27T10:46:27;15.40;75.50
46720;DHT22;32452;51.382;-0.002;2022-09-27T10:55:15;15.70;73.30
46720;DHT22;32452;51.382;-0.002;2022-09-27T10:58:03;15.60;72.70
46720;DHT22;32452;51.382;-0.002;2022-09-27T11:01:05;15.30;73.60
46720;DHT22;32452;51.382;-0.002;2022-09-27T11:03:55;15.10;74.50
46720;DHT22;32452;51.382;-0.002;2022-09-27T11:06:42;15.00;75.20
46720;DHT22;32452;51.382;-0.002;2022-09-27T11:09:28;15.00;75.70
46720;DHT22;32452;51.382;-0.002;2022-09-27T11:12:14;15.00;75.90
46720;DHT22;32452;51.382;-0.002;2022-09-27T11:15:13;15.00;75.70
46720;DHT22;32452;51.382;-0.002;2022-09-27T11:18:10;15.10;75.20
46720;DHT22;32452;51.382;-0.002;2022-09-27T11:24:33;15.00;75.50
46720;DHT22;32452;51.382;-0.002;2022-09-27T11:27:33;15.30;76.20
46720;DHT22;32452;51.382;-0.002;2022-09-27T11:30:22;15.80;75.90
46720;DHT22;32452;51.382;-0.002;2022-09-27T11:33:29;16.20;74.50
46720;DHT22;32452;51.382;-0.002;2022-09-27T11:36:27;16.30;74.70
46720;DHT22;32452;51.382;-0.002;2022-09-27T11:39:22;16.20;74.80
46720;DHT22;32452;51.382;-0.002;2022-09-27T11:42:23;15.90;76.00
46720;DHT22;32452;51.382;-0.002;2022-09-27T11:49:35;15.20;79.80
46720;DHT22;32452;51.382;-0.002;2022-09-27T12:10:00;14.00;87.80
46720;DHT22;32452;51.382;-0.002;2022-09-27T12:12:51;13.90;88.60
46720;DHT22;32452;51.382;-0.002;2022-09-27T12:15:41;13.80;89.30
46720;DHT22;32452;51.382;-0.002;2022-09-27T12:18:32;13.80;90.30
46720;DHT22;32452;51.382;-0.002;2022-09-27T12:21:20;14.00;91.10
46720;DHT22;32452;51.382;-0.002;2022-09-27T12:24:08;14.20;91.70
46720;DHT22;32452;51.382;-0.002;2022-09-27T12:27:00;14.40;91.50
46720;DHT22;32452;51.382;-0.002;2022-09-27T12:29:48;14.50;91.40
46720;DHT22;32452;51.382;-0.002;2022-09-27T12:35:51;14.40;91.60
46720;DHT22;32452;51.382;-0.002;2022-09-27T12:38:57;14.40;91.40
46720;DHT22;32452;51.382;-0.002;2022-09-27T12:41:54;14.40;91.70
46720;DHT22;32452;51.382;-0.002;2022-09-27T12:44:46;14.50;91.60
46720;DHT22;32452;51.382;-0.002;2022-09-27T12:50:52;14.60;91.30
46720;DHT22;32452;51.382;-0.002;2022-09-27T12:54:09;14.60;91.30
46720;DHT22;32452;51.382;-0.002;2022-09-27T12:57:05;14.50;91.50
46720;DHT22;32452;51.382;-0.002;2022-09-27T13:00:11;14.40;91.50
46720;DHT22;32452;51.382;-0.002;2022-09-27T13:06:35;14.10;91.30
46720;DHT22;32452;51.382;-0.002;2022-09-27T13:12:26;14.10;91.70
46720;DHT22;32452;51.382;-0.002;2022-09-27T13:15:21;14.20;91.90
46720;DHT22;32452;51.382;-0.002;2022-09-27T13:42:05;15.20;90.30
46720;DHT22;32452;51.382;-0.002;2022-09-27T13:45:14;15.40;90.20
46720;DHT22;32452;51.382;-0.002;2022-09-27T13:48:08;15.50;89.40
46720;DHT22;32452;51.382;-0.002;2022-09-27T13:51:16;15.50;89.00
46720;DHT22;32452;51.382;-0.002;2022-09-27T13:54:33;15.40;88.60
46720;DHT22;32452;51.382;-0.002;2022-09-27T14:00:24;15.10;88.60
46720;DHT22;32452;51.382;-0.002;2022-09-27T14:06:03;14.90;89.60
46720;DHT22;32452;51.382;-0.002;2022-09-27T14:08:56;14.80;90.00
46720;DHT22;32452;51.382;-0.002;2022-09-27T14:11:43;14.80;90.10
46720;DHT22;32452;51.382;-0.002;2022-09-27T14:14:34;14.80;90.50
46720;DHT22;32452;51.382;-0.002;2022-09-27T14:17:21;15.00;90.50
46720;DHT22;32452;51.382;-0.002;2022-09-27T14:20:30;15.20;90.00
46720;DHT22;32452;51.382;-0.002;2022-09-27T14:23:23;15.40;89.40
46720;DHT22;32452;51.382;-0.002;2022-09-27T14:26:24;15.50;88.60
46720;DHT22;32452;51.382;-0.002;2022-09-27T14:29:21;15.60;87.20
46720;DHT22;32452;51.382;-0.002;2022-09-27T14:32:12;15.40;86.20
46720;DHT22;32452;51.382;-0.002;2022-09-27T14:35:28;15.40;85.90
46720;DHT22;32452;51.382;-0.002;2022-09-27T14:38:33;15.30;85.50
46720;DHT22;32452;51.382;-0.002;2022-09-27T14:41:25;15.20;85.20
46720;DHT22;32452;51.382;-0.002;2022-09-27T14:44:14;15.10;84.50
46720;DHT22;32452;51.382;-0.002;2022-09-27T14:47:21;15.00;84.10
46720;DHT22;32452;51.382;-0.002;2022-09-27T14:50:23;14.90;84.00
46720;DHT22;32452;51.382;-0.002;2022-09-27T14:53:22;14.80;82.90
46720;DHT22;32452;51.382;-0.002;2022-09-27T14:56:18;14.80;82.30
46720;DHT22;32452;51.382;-0.002;2022-09-27T14:59:12;14.70;81.60
46720;DHT22;32452;51.382;-0.002;2022-09-27T15:02:01;14.60;80.80
46720;DHT22;32452;51.382;-0.002;2022-09-27T15:04:49;14.60;81.00
46720;DHT22;32452;51.382;-0.002;2022-09-27T15:07:41;14.60;80.80
46720;DHT22;32452;51.382;-0.002;2022-09-27T15:10:29;14.50;80.60
46720;DHT22;32452;51.382;-0.002;2022-09-27T15:13:18;14.50;80.10
46720;DHT22;32452;51.382;-0.002;2022-09-27T15:16:15;14.40;80.00
46720;DHT22;32452;51.382;-0.002;2022-09-27T15:19:26;14.50;80.30
46720;DHT22;32452;51.382;-0.002;2022-09-27T15:22:33;14.50;80.10
46720;DHT22;32452;51.382;-0.002;2022-09-27T15:25:34;14.50;80.60
46720;DHT22;32452;51.382;-0.002;2022-09-27T15:28:20;14.50;79.60
46720;DHT22;32452;51.382;-0.002;2022-09-27T15:31:06;14.50;79.50
46720;DHT22;32452;51.382;-0.002;2022-09-27T15:33:54;14.50;79.40
46720;DHT22;32452;51.382;-0.002;2022-09-27T15:36:56;14.50;79.40
46720;DHT22;32452;51.382;-0.002;2022-09-27T15:39:51;14.40;80.00
46720;DHT22;32452;51.382;-0.002;2022-09-27T15:42:56;14.30;81.10
46720;DHT22;32452;51.382;-0.002;2022-09-27T15:45:48;14.30;82.40
46720;DHT22;32452;51.382;-0.002;2022-09-27T15:48:34;14.10;83.60
46720;DHT22;32452;51.382;-0.002;2022-09-27T15:51:48;13.90;84.70
46720;DHT22;32452;51.382;-0.002;2022-09-27T15:54:34;13.90;86.20
46720;DHT22;32452;51.382;-0.002;2022-09-27T15:57:20;13.70;87.50
46720;DHT22;32452;51.382;-0.002;2022-09-27T16:00:14;13.60;88.80
46720;DHT22;32452;51.382;-0.002;2022-09-27T16:03:03;13.60;90.00
46720;DHT22;32452;51.382;-0.002;2022-09-27T16:05:48;13.60;90.30
46720;DHT22;32452;51.382;-0.002;2022-09-27T16:08:34;13.60;90.70
46720;DHT22;32452;51.382;-0.002;2022-09-27T16:11:19;13.60;91.00
46720;DHT22;32452;51.382;-0.002;2022-09-27T16:14:06;13.60;91.40
46720;DHT22;32452;51.382;-0.002;2022-09-27T16:16:54;13.50;91.60
46720;DHT22;32452;51.382;-0.002;2022-09-27T16:19:43;13.50;91.90
46720;DHT22;32452;51.382;-0.002;2022-09-27T16:22:28;13.50;92.10
46720;DHT22;32452;51.382;-0.002;2022-09-27T16:25:15;13.40;92.40
46720;DHT22;32452;51.382;-0.002;2022-09-27T16:28:01;13.40;92.70
46720;DHT22;32452;51.382;-0.002;2022-09-27T16:30:47;13.40;92.90
46720;DHT22;32452;51.382;-0.002;2022-09-27T16:33:32;13.40;92.90
46720;DHT22;32452;51.382;-0.002;2022-09-27T16:36:18;13.40;93.00
46720;DHT22;32452;51.382;-0.002;2022-09-27T16:39:07;13.30;93.00
46720;DHT22;32452;51.382;-0.002;2022-09-27T16:41:54;13.30;93.20
46720;DHT22;32452;51.382;-0.002;2022-09-27T16:44:40;13.20;93.20
46720;DHT22;32452;51.382;-0.002;2022-09-27T16:47:28;13.20;93.20
46720;DHT22;32452;51.382;-0.002;2022-09-27T16:50:14;13.20;93.30
46720;DHT22;32452;51.382;-0.002;2022-09-27T16:53:18;13.10;93.30
46720;DHT22;32452;51.382;-0.002;2022-09-27T16:56:04;13.10;93.40
46720;DHT22;32452;51.382;-0.002;2022-09-27T16:58:49;13.00;93.40
46720;DHT22;32452;51.382;-0.002;2022-09-27T17:01:35;13.00;93.50
46720;DHT22;32452;51.382;-0.002;2022-09-27T17:04:20;13.00;93.60
46720;DHT22;32452;51.382;-0.002;2022-09-27T17:07:07;13.00;93.60
46720;DHT22;32452;51.382;-0.002;2022-09-27T17:09:52;12.90;93.70
46720;DHT22;32452;51.382;-0.002;2022-09-27T17:12:38;12.90;93.80
46720;DHT22;32452;51.382;-0.002;2022-09-27T17:15:24;12.80;93.90
46720;DHT22;32452;51.382;-0.002;2022-09-27T17:18:09;12.80;94.00
46720;DHT22;32452;51.382;-0.002;2022-09-27T17:21:01;12.80;94.00
46720;DHT22;32452;51.382;-0.002;2022-09-27T17:23:51;12.70;94.10
46720;DHT22;32452;51.382;-0.002;2022-09-27T17:26:40;12.70;94.20
46720;DHT22;32452;51.382;-0.002;2022-09-27T17:29:30;12.70;94.20
46720;DHT22;32452;51.382;-0.002;2022-09-27T17:32:16;12.70;94.20
46720;DHT22;32452;51.382;-0.002;2022-09-27T17:35:02;12.60;94.10
46720;DHT22;32452;51.382;-0.002;2022-09-27T17:37:47;12.60;94.10
46720;DHT22;32452;51.382;-0.002;2022-09-27T17:40:33;12.50;94.10
46720;DHT22;32452;51.382;-0.002;2022-09-27T17:43:22;12.40;94.20
46720;DHT22;32452;51.382;-0.002;2022-09-27T17:46:09;12.40;94.30
46720;DHT22;32452;51.382;-0.002;2022-09-27T17:48:55;12.40;94.30
46720;DHT22;32452;51.382;-0.002;2022-09-27T17:51:59;12.30;94.30
46720;DHT22;32452;51.382;-0.002;2022-09-27T17:54:45;12.20;94.30
46720;DHT22;32452;51.382;-0.002;2022-09-27T17:57:30;12.10;94.40
46720;DHT22;32452;51.382;-0.002;2022-09-27T18:00:17;12.10;94.60
46720;DHT22;32452;51.382;-0.002;2022-09-27T18:03:02;12.00;94.70
46720;DHT22;32452;51.382;-0.002;2022-09-27T18:05:48;12.00;94.80
46720;DHT22;32452;51.382;-0.002;2022-09-27T18:08:34;12.00;94.90
46720;DHT22;32452;51.382;-0.002;2022-09-27T18:11:21;12.00;95.00
46720;DHT22;32452;51.382;-0.002;2022-09-27T18:14:11;12.00;95.00
46720;DHT22;32452;51.382;-0.002;2022-09-27T18:16:57;12.00;95.00
46720;DHT22;32452;51.382;-0.002;2022-09-27T18:19:42;12.00;95.00
46720;DHT22;32452;51.382;-0.002;2022-09-27T18:22:28;12.00;95.10
46720;DHT22;32452;51.382;-0.002;2022-09-27T18:25:15;12.00;95.10
46720;DHT22;32452;51.382;-0.002;2022-09-27T18:28:00;11.90;95.00
46720;DHT22;32452;51.382;-0.002;2022-09-27T18:30:48;11.90;95.00
46720;DHT22;32452;51.382;-0.002;2022-09-27T18:33:34;11.80;95.00
46720;DHT22;32452;51.382;-0.002;2022-09-27T18:36:23;11.80;95.10
46720;DHT22;32452;51.382;-0.002;2022-09-27T18:39:10;11.70;95.20
46720;DHT22;32452;51.382;-0.002;2022-09-27T18:41:56;11.70;95.30
46720;DHT22;32452;51.382;-0.002;2022-09-27T18:44:42;11.70;95.40
46720;DHT22;32452;51.382;-0.002;2022-09-27T18:47:27;11.70;95.40
46720;DHT22;32452;51.382;-0.002;2022-09-27T18:50:13;11.60;95.30
46720;DHT22;32452;51.382;-0.002;2022-09-27T18:52:59;11.60;95.30
46720;DHT22;32452;51.382;-0.002;2022-09-27T18:55:44;11.50;95.40
46720;DHT22;32452;51.382;-0.002;2022-09-27T18:58:30;11.50;95.40
46720;DHT22;32452;51.382;-0.002;2022-09-27T19:01:18;11.40;95.40
46720;DHT22;32452;51.382;-0.002;2022-09-27T19:04:08;11.30;95.50
46720;DHT22;32452;51.382;-0.002;2022-09-27T19:06:55;11.30;95.60
46720;DHT22;32452;51.382;-0.002;2022-09-27T19:09:40;11.20;95.60
46720;DHT22;32452;51.382;-0.002;2022-09-27T19:12:26;11.10;95.70
46720;DHT22;32452;51.382;-0.002;2022-09-27T19:15:12;11.10;95.70
46720;DHT22;32452;51.382;-0.002;2022-09-27T19:17:57;11.10;95.80
46720;DHT22;32452;51.382;-0.002;2022-09-27T19:20:43;11.10;95.90
46720;DHT22;32452;51.382;-0.002;2022-09-27T19:23:29;11.00;96.00
46720;DHT22;32452;51.382;-0.002;2022-09-27T19:26:21;11.10;96.10
46720;DHT22;32452;51.382;-0.002;2022-09-27T19:29:07;11.10;96.10
46720;DHT22;32452;51.382;-0.002;2022-09-27T19:31:53;11.10;96.10
46720;DHT22;32452;51.382;-0.002;2022-09-27T19:34:38;11.00;96.10
46720;DHT22;32452;51.382;-0.002;2022-09-27T19:37:24;11.00;96.10
46720;DHT22;32452;51.382;-0.002;2022-09-27T19:40:09;11.00;96.20
46720;DHT22;32452;51.382;-0.002;2022-09-27T19:43:00;11.00;96.20
46720;DHT22;32452;51.382;-0.002;2022-09-27T19:45:46;11.10;96.30
46720;DHT22;32452;51.382;-0.002;2022-09-27T19:48:35;11.00;96.10
46720;DHT22;32452;51.382;-0.002;2022-09-27T19:51:25;11.00;96.10
46720;DHT22;32452;51.382;-0.002;2022-09-27T19:54:11;11.00;96.10
46720;DHT22;32452;51.382;-0.002;2022-09-27T19:56:57;11.00;96.10
46720;DHT22;32452;51.382;-0.002;2022-09-27T19:59:43;10.90;96.10
46720;DHT22;32452;51.382;-0.002;2022-09-27T20:02:29;11.00;96.10
46720;DHT22;32452;51.382;-0.002;2022-09-27T20:05:14;11.00;96.10
46720;DHT22;32452;51.382;-0.002;2022-09-27T20:08:03;11.00;96.10
46720;DHT22;32452;51.382;-0.002;2022-09-27T20:11:00;11.00;96.10
46720;DHT22;32452;51.382;-0.002;2022-09-27T20:13:52;11.00;96.00
46720;DHT22;32452;51.382;-0.002;2022-09-27T20:16:42;11.00;96.00